Time;durP1;ratioP1;P1;durP2;ratioP2;P2;SDS_P1;SDS_P2;PMS_P1;PMS_P2;Temp;Humidity;BMP_temperature;BMP_pressure;BME280_temperature;BME280_humidity;BME280_pressure;Samples;Min_cycle;Max_cycle;Signal;HPM_P1;HPM_P2
2021/03/07 00:00:13;;;;;;;9.10;8.30;;;;;;;3.50;40.24;102341.94;4920316;28;99024;-72
2021/03/07 00:02:41;;;;;;;8.43;7.47;;;;;;;3.48;40.34;102340.91;4916825;28;100699;-72
2021/03/07 00:05:09;;;;;;;8.32;7.53;;;;;;;3.46;40.25;102341.59;4925913;28;98208;-71
2021/03/07 00:07:37;;;;;;;9.70;7.82;;;;;;;3.47;40.19;102338.16;4920199;28;97020;-72
2021/03/07 00:10:06;;;;;;;9.55;8.35;;;;;;;3.48;40.36;102333.00;4918508;28;100725;-72
2021/03/07 00:12:36;;;;;;;8.15;7.35;;;;;;;3.47;40.13;102335.53;4907606;28;99239;-72
2021/03/07 00:15:04;;;;;;;7.93;7.18;;;;;;;3.42;40.88;102336.91;4924001;28;96978;-73
2021/03/07 00:17:31;;;;;;;7.95;7.20;;;;;;;3.42;40.42;102336.91;4934980;28;97109;-72
2021/03/07 00:19:58;;;;;;;8.63;7.70;;;;;;;3.36;40.67;102326.84;4915061;28;98521;-72
2021/03/07 00:22:25;;;;;;;8.43;7.72;;;;;;;3.33;40.51;102326.59;4927925;28;98169;-72
2021/03/07 00:24:53;;;;;;;8.82;8.02;;;;;;;3.31;40.69;102322.03;4928873;28;97545;-72
2021/03/07 00:27:21;;;;;;;7.70;7.07;;;;;;;3.31;40.44;102328.22;4906707;28;96901;-72
2021/03/07 00:29:47;;;;;;;8.02;7.25;;;;;;;3.31;40.44;102328.22;4927945;28;98695;-72
2021/03/07 00:32:14;;;;;;;10.00;9.10;;;;;;;3.35;40.37;102330.25;4932260;28;97166;-72
2021/03/07 00:34:41;;;;;;;8.80;8.00;;;;;;;3.37;40.76;102325.13;4925774;28;99134;-72
2021/03/07 00:37:08;;;;;;;8.90;8.00;;;;;;;3.36;40.67;102321.56;4896018;28;97708;-72
2021/03/07 00:39:35;;;;;;;9.63;8.63;;;;;;;3.35;40.89;102324.09;4923833;28;97129;-73
2021/03/07 00:42:04;;;;;;;9.30;7.90;;;;;;;3.35;40.18;102317.09;4929366;28;96868;-73
2021/03/07 00:44:31;;;;;;;10.57;7.78;;;;;;;3.36;40.89;102321.56;4932180;28;96928;-73
2021/03/07 00:46:58;;;;;;;8.07;7.38;;;;;;;3.37;40.14;102309.34;4890312;28;97211;-73
2021/03/07 00:49:27;;;;;;;8.52;7.70;;;;;;;3.37;40.64;102301.44;4930803;28;98327;-73
2021/03/07 00:51:55;;;;;;;9.05;7.93;;;;;;;3.35;40.17;102303.94;4907699;28;99428;-72
2021/03/07 00:54:22;;;;;;;11.70;8.25;;;;;;;3.36;40.33;102304.88;4919830;28;96927;-73
2021/03/07 00:56:48;;;;;;;8.38;7.63;;;;;;;3.33;40.26;102308.16;4919128;28;97787;-72
2021/03/07 00:59:16;;;;;;;8.70;7.85;;;;;;;3.32;40.38;102306.34;4909153;28;99271;-73
2021/03/07 01:01:43;;;;;;;9.73;7.63;;;;;;;3.28;40.52;102299.03;4931728;28;99206;-72
2021/03/07 01:04:11;;;;;;;8.13;7.43;;;;;;;3.27;40.29;102305.09;4914453;28;96799;-70
2021/03/07 01:06:38;;;;;;;9.10;8.20;;;;;;;3.26;40.32;102297.09;4913378;28;97415;-70
2021/03/07 01:09:05;;;;;;;8.98;7.93;;;;;;;3.22;41.20;102291.59;4925335;28;99926;-70
2021/03/07 01:11:32;;;;;;;8.57;7.72;;;;;;;3.21;40.60;102286.22;4927312;28;98272;-71
2021/03/07 01:13:59;;;;;;;9.50;8.55;;;;;;;3.21;40.37;102276.63;4918665;28;97221;-71
2021/03/07 01:16:27;;;;;;;8.48;7.57;;;;;;;3.22;41.23;102277.56;4923755;28;96878;-72
2021/03/07 01:18:55;;;;;;;8.25;7.55;;;;;;;3.19;40.57;102275.59;4930304;28;98993;-70
2021/03/07 01:21:21;;;;;;;8.40;7.55;;;;;;;3.17;40.90;102266.69;4922375;28;100304;-71
2021/03/07 01:23:48;;;;;;;9.13;7.88;;;;;;;3.19;41.24;102264.16;4896765;28;97436;-71
2021/03/07 01:26:15;;;;;;;10.40;7.93;;;;;;;3.16;40.94;102256.03;4932280;28;97517;-72
2021/03/07 01:28:42;;;;;;;9.05;8.13;;;;;;;3.14;41.34;102250.69;4926851;28;98863;-71
2021/03/07 01:31:09;;;;;;;8.73;7.75;;;;;;;3.15;41.26;102256.81;4929062;28;97549;-71
2021/03/07 01:33:37;;;;;;;9.23;8.25;;;;;;;3.15;40.87;102254.19;4912304;28;97247;-71
2021/03/07 01:36:04;;;;;;;10.20;8.05;;;;;;;3.15;40.90;102254.19;4905782;28;97660;-70
2021/03/07 01:38:31;;;;;;;8.45;7.65;;;;;;;3.13;40.68;102246.19;4922773;28;101304;-71
2021/03/07 01:40:59;;;;;;;10.00;7.15;;;;;;;3.18;40.72;102241.28;4931659;28;97432;-70
2021/03/07 01:43:26;;;;;;;8.43;7.25;;;;;;;3.20;41.22;102239.69;4933684;28;97243;-70
2021/03/07 01:45:53;;;;;;;8.18;7.47;;;;;;;3.17;40.56;102239.44;4889221;28;96984;-71
2021/03/07 01:48:21;;;;;;;8.45;7.57;;;;;;;3.14;40.96;102227.00;4900427;28;99517;-71
2021/03/07 01:50:53;;;;;;;9.30;7.75;;;;;;;3.09;41.17;102225.72;4928200;28;100304;-71
2021/03/07 01:53:39;;;;;;;7.88;7.10;;;;;;;3.04;41.27;102215.66;4931326;28;96920;-71
2021/03/07 01:56:06;;;;;;;8.07;6.97;;;;;;;2.98;41.08;102210.88;4916121;28;97788;-72
2021/03/07 01:58:33;;;;;;;7.97;6.85;;;;;;;2.96;41.22;102211.56;4925840;28;97140;-72
2021/03/07 02:01:01;;;;;;;7.32;6.45;;;;;;;2.94;40.86;102207.91;4927381;28;99354;-71
2021/03/07 02:03:28;;;;;;;6.57;4.93;;;;;;;2.93;41.41;102192.97;4922898;28;96852;-72
2021/03/07 02:06:34;;;;;;;6.53;5.93;;;;;;;2.93;40.70;102199.09;4922884;28;97233;-71
2021/03/07 02:09:02;;;;;;;6.97;6.28;;;;;;;2.92;41.23;102194.66;4909574;28;97301;-71
2021/03/07 02:11:29;;;;;;;6.32;5.65;;;;;;;2.86;41.30;102185.38;4918134;28;98535;-71
2021/03/07 02:13:56;;;;;;;6.13;5.63;;;;;;;2.84;40.74;102189.63;4917297;28;96940;-72
2021/03/07 02:16:25;;;;;;;6.60;6.03;;;;;;;2.80;41.47;102182.31;4924090;28;97775;-71
2021/03/07 02:18:54;;;;;;;6.93;6.13;;;;;;;2.76;41.06;102180.25;4917185;28;100906;-72
2021/03/07 02:21:23;;;;;;;7.20;6.22;;;;;;;2.75;41.27;102179.34;4929108;28;97535;-71
2021/03/07 02:23:57;;;;;;;7.25;6.57;;;;;;;2.75;40.67;102179.34;4930629;28;97068;-71
2021/03/07 02:26:25;;;;;;;8.25;6.38;;;;;;;2.76;41.57;102181.19;4918619;28;97017;-72
2021/03/07 02:28:51;;;;;;;7.20;6.50;;;;;;;2.77;41.57;102182.06;4915162;28;100572;-71
2021/03/07 02:31:21;;;;;;;6.80;6.15;;;;;;;2.78;41.42;102176.03;4924437;28;98436;-71
2021/03/07 02:33:51;;;;;;;7.10;6.40;;;;;;;2.78;40.81;102176.03;4928350;28;97792;-72
2021/03/07 02:36:22;;;;;;;6.10;5.55;;;;;;;2.76;40.43;102167.13;4930128;28;97054;-70
2021/03/07 02:38:50;;;;;;;6.18;5.68;;;;;;;2.74;40.63;102173.97;4898029;28;98870;-71
2021/03/07 02:41:18;;;;;;;6.50;6.00;;;;;;;2.70;40.47;102164.94;4928004;28;97662;-71
2021/03/07 02:44:07;;;;;;;9.20;5.72;;;;;;;2.67;41.04;102166.44;4933314;28;96878;-71
2021/03/07 02:46:35;;;;;;;8.48;6.18;;;;;;;2.66;40.77;102173.41;4902619;28;97397;-70
2021/03/07 02:49:04;;;;;;;6.70;5.90;;;;;;;2.64;40.94;102164.47;4918798;28;97791;-70
2021/03/07 02:51:33;;;;;;;6.70;5.72;;;;;;;2.61;41.45;102161.63;4919603;28;99154;-71
2021/03/07 02:54:20;;;;;;;11.88;6.25;;;;;;;2.61;41.20;102165.97;4931068;28;97262;-70
2021/03/07 02:56:51;;;;;;;6.78;6.18;;;;;;;2.62;41.17;102160.81;4908161;28;98114;-70
2021/03/07 02:59:20;;;;;;;6.90;6.40;;;;;;;2.63;40.79;102157.41;4916523;28;98645;-70
2021/03/07 03:01:53;;;;;;;7.18;6.47;;;;;;;2.64;40.60;102156.59;4918798;28;98867;-71
2021/03/07 03:04:20;;;;;;;6.65;6.05;;;;;;;2.63;40.94;102145.97;4902901;28;97191;-70
2021/03/07 03:06:47;;;;;;;9.02;6.68;;;;;;;2.63;40.75;102146.91;4926845;28;96937;-70
2021/03/07 03:09:15;;;;;;;6.68;6.18;;;;;;;2.65;40.85;102149.63;4936637;28;97852;-73
2021/03/07 03:11:42;;;;;;;7.05;6.45;;;;;;;2.61;40.95;102143.25;4917387;28;98892;-71
2021/03/07 03:14:13;;;;;;;6.70;6.20;;;;;;;2.61;40.74;102147.56;4916332;28;98050;-71
2021/03/07 03:16:42;;;;;;;6.97;6.45;;;;;;;2.59;41.00;102150.09;4893022;28;97731;-71
2021/03/07 03:19:10;;;;;;;6.75;6.03;;;;;;;2.59;40.86;102150.09;4907888;28;97479;-71
2021/03/07 03:21:38;;;;;;;7.05;6.32;;;;;;;2.63;41.26;102148.59;4913374;28;99575;-71
2021/03/07 03:24:07;;;;;;;6.65;6.07;;;;;;;2.60;40.80;102144.03;4924888;28;97104;-72
2021/03/07 03:26:34;;;;;;;7.32;6.32;;;;;;;2.63;40.63;102143.34;4930007;28;97340;-70
2021/03/07 03:29:03;;;;;;;8.27;6.38;;;;;;;2.64;40.79;102146.09;4910867;28;100550;-71
2021/03/07 03:31:31;;;;;;;6.63;6.00;;;;;;;2.66;41.03;102143.56;4937469;28;97843;-72
2021/03/07 03:33:59;;;;;;;7.65;6.30;;;;;;;2.63;41.10;102143.34;4929600;28;97303;-71
2021/03/07 03:36:25;;;;;;;6.57;5.97;;;;;;;2.63;41.32;102144.28;4933627;28;96928;-72
2021/03/07 03:38:55;;;;;;;6.70;6.10;;;;;;;2.64;41.18;102139.91;4903667;28;99336;-71
2021/03/07 03:41:41;;;;;;;8.77;5.95;;;;;;;2.66;41.14;102140.94;4924898;28;96882;-70
2021/03/07 03:44:10;;;;;;;7.03;6.03;;;;;;;2.59;41.28;102133.41;4924628;28;97412;-70
2021/03/07 03:46:40;;;;;;;6.20;5.70;;;;;;;2.56;41.16;102126.22;4909718;28;97312;-70
2021/03/07 03:49:09;;;;;;;7.43;6.43;;;;;;;2.51;41.00;102130.19;4910967;28;99297;-71
2021/03/07 03:51:39;;;;;;;6.53;6.03;;;;;;;2.46;41.18;102126.31;4916445;28;98876;-71
2021/03/07 03:54:08;;;;;;;6.38;5.75;;;;;;;2.48;41.29;102129.06;4915873;28;97043;-71
2021/03/07 03:56:35;;;;;;;8.10;6.70;;;;;;;2.46;40.83;102136.84;4907273;28;97452;-71
2021/03/07 03:59:03;;;;;;;7.68;6.95;;;;;;;2.45;40.56;102134.09;4926174;28;99165;-70
2021/03/07 04:01:32;;;;;;;6.47;5.88;;;;;;;2.45;40.66;102136.72;4927907;28;98052;-70
2021/03/07 04:04:02;;;;;;;7.07;6.47;;;;;;;2.47;40.91;102137.75;4934485;28;97181;-70
2021/03/07 04:06:30;;;;;;;6.70;6.13;;;;;;;2.50;40.95;102136.28;4925224;28;96810;-70
2021/03/07 04:09:15;;;;;;;7.13;6.57;;;;;;;2.49;41.45;102136.16;4933189;28;97450;-71
2021/03/07 04:11:42;;;;;;;7.15;6.20;;;;;;;2.52;40.63;102123.25;4928517;28;97661;-70
2021/03/07 04:14:16;;;;;;;7.90;6.93;;;;;;;2.53;41.40;102130.34;4917466;28;97155;-71
2021/03/07 04:16:43;;;;;;;6.68;6.13;;;;;;;2.49;41.01;102129.16;4926511;28;97248;-70
2021/03/07 04:19:11;;;;;;;8.57;6.35;;;;;;;2.46;40.57;102120.16;4922139;28;99048;-71
2021/03/07 04:21:39;;;;;;;7.32;6.57;;;;;;;2.49;40.50;102115.16;4934686;28;98644;-71
2021/03/07 04:24:07;;;;;;;10.60;7.13;;;;;;;2.51;41.41;102113.53;4923908;28;97440;-71
2021/03/07 04:26:34;;;;;;;8.85;6.60;;;;;;;2.55;41.12;102110.31;4931597;28;96970;-70
2021/03/07 04:29:07;;;;;;;8.07;7.38;;;;;;;2.58;40.86;102110.56;4921807;28;98216;-70
2021/03/07 04:31:34;;;;;;;9.40;7.45;;;;;;;2.61;40.17;102110.78;4923152;28;97629;-71
2021/03/07 04:34:02;;;;;;;8.00;7.25;;;;;;;2.62;40.41;102107.38;4907164;28;97300;-71
2021/03/07 04:36:30;;;;;;;7.65;6.88;;;;;;;2.65;40.30;102112.84;4935547;28;97395;-71
2021/03/07 04:38:57;;;;;;;9.13;7.22;;;;;;;2.65;41.33;102115.47;4922428;28;99327;-70
2021/03/07 04:41:24;;;;;;;7.93;6.93;;;;;;;2.65;41.06;102108.50;4916969;28;99587;-70
2021/03/07 04:43:53;;;;;;;7.38;6.22;;;;;;;2.65;40.56;102107.59;4929134;28;96759;-71
2021/03/07 04:46:21;;;;;;;7.43;6.03;;;;;;;2.61;40.99;102101.19;4929949;28;97407;-70
2021/03/07 04:48:48;;;;;;;6.75;6.20;;;;;;;2.60;40.63;102103.72;4919418;28;99681;-70
2021/03/07 04:51:16;;;;;;;7.70;5.97;;;;;;;2.56;40.60;102101.66;4911559;28;98664;-71
2021/03/07 04:53:44;;;;;;;6.60;5.75;;;;;;;2.51;40.63;102105.66;4915493;28;96725;-71
2021/03/07 04:56:10;;;;;;;6.70;6.07;;;;;;;2.52;40.54;102099.59;4936806;28;97142;-70
2021/03/07 04:58:37;;;;;;;5.60;5.18;;;;;;;2.52;40.09;102099.59;4920749;28;97558;-70
2021/03/07 05:01:04;;;;;;;5.88;5.28;;;;;;;2.45;40.81;102097.31;4909701;28;100536;-70
2021/03/07 05:03:32;;;;;;;6.03;4.68;;;;;;;2.40;40.07;102090.81;4932659;28;97415;-71
2021/03/07 05:05:59;;;;;;;5.97;5.57;;;;;;;2.35;40.65;102089.53;4909016;28;97170;-72
2021/03/07 05:08:27;;;;;;;6.78;4.80;;;;;;;2.16;40.78;102088.16;4928966;28;99266;-71
2021/03/07 05:10:55;;;;;;;4.60;4.30;;;;;;;2.05;41.48;102083.75;4928718;28;99205;-71
2021/03/07 05:13:22;;;;;;;4.60;4.38;;;;;;;2.03;40.58;102085.41;4933252;28;96681;-72
2021/03/07 05:15:49;;;;;;;4.93;4.50;;;;;;;2.05;40.57;102080.25;4934096;28;97122;-72
2021/03/07 05:18:17;;;;;;;5.80;5.43;;;;;;;2.03;40.56;102085.41;4909534;28;98883;-71
2021/03/07 05:20:44;;;;;;;4.40;4.00;;;;;;;1.96;40.36;102083.06;4913481;28;96923;-71
2021/03/07 05:23:11;;;;;;;5.25;4.82;;;;;;;1.92;40.96;102081.03;4907541;28;97339;-71
2021/03/07 05:25:38;;;;;;;5.68;5.13;;;;;;;1.93;41.06;102082.84;4929675;28;97533;-71
2021/03/07 05:28:06;;;;;;;4.25;4.03;;;;;;;1.90;41.09;102074.75;4911692;28;97667;-71
2021/03/07 05:30:33;;;;;;;4.50;4.30;;;;;;;1.87;40.64;102073.59;4909590;28;99795;-71
2021/03/07 05:33:00;;;;;;;5.10;4.60;;;;;;;1.91;41.12;102076.56;4901456;28;97237;-72
2021/03/07 05:35:27;;;;;;;4.70;4.40;;;;;;;1.93;40.86;102074.97;4927303;28;96959;-72
2021/03/07 05:37:54;;;;;;;6.18;4.88;;;;;;;1.92;40.23;102070.53;4903421;28;99811;-72
2021/03/07 05:40:21;;;;;;;6.18;5.45;;;;;;;2.01;40.84;102071.25;4905039;28;99486;-72
2021/03/07 05:43:08;;;;;;;6.10;5.60;;;;;;;2.03;40.16;102058.22;4923835;28;96685;-71
2021/03/07 05:45:36;;;;;;;11.57;7.82;;;;;;;1.90;40.85;102065.97;4898675;28;98203;-71
2021/03/07 05:48:03;;;;;;;6.13;5.05;;;;;;;1.99;40.31;102062.31;4937209;28;97806;-71
2021/03/07 05:50:30;;;;;;;5.35;4.82;;;;;;;1.89;40.62;102065.03;4917775;28;98608;-72
2021/03/07 05:52:57;;;;;;;5.10;4.70;;;;;;;1.84;40.58;102057.59;4927712;28;97471;-72
2021/03/07 05:55:25;;;;;;;4.25;3.95;;;;;;;1.81;40.68;102066.19;4930820;28;96756;-72
2021/03/07 05:57:52;;;;;;;5.85;5.38;;;;;;;1.97;40.71;102053.41;4930963;28;97298;-72
2021/03/07 06:00:20;;;;;;;5.60;5.20;;;;;;;1.91;39.94;102063.44;4940297;28;99961;-72
2021/03/07 06:02:47;;;;;;;5.18;4.55;;;;;;;1.90;39.95;102064.25;4910775;28;96844;-72
2021/03/07 06:05:15;;;;;;;6.13;5.50;;;;;;;2.04;39.99;102063.56;4905691;28;96907;-72
2021/03/07 06:07:43;;;;;;;5.03;4.63;;;;;;;2.00;39.60;102058.88;4921709;28;99829;-72
2021/03/07 06:10:11;;;;;;;4.80;4.53;;;;;;;1.95;39.77;102064.59;4892450;28;99538;-72
2021/03/07 06:12:38;;;;;;;5.80;4.68;;;;;;;1.94;40.34;102060.16;4914575;28;97331;-72
2021/03/07 06:15:07;;;;;;;4.30;4.00;;;;;;;1.93;40.11;102059.22;4920682;28;97442;-71
2021/03/07 06:17:44;;;;;;;4.82;4.50;;;;;;;1.94;40.64;102061.06;4921358;28;97974;-72
2021/03/07 06:20:13;;;;;;;4.55;4.35;;;;;;;1.94;39.61;102054.91;4918083;28;98404;-72
2021/03/07 06:22:51;;;;;;;4.55;4.25;;;;;;;1.93;40.65;102060.94;4921967;28;97420;-74
2021/03/07 06:25:17;;;;;;;5.35;4.95;;;;;;;2.08;40.08;102064.72;4925155;28;96796;-75
2021/03/07 06:27:44;;;;;;;5.20;4.80;;;;;;;2.15;39.42;102062.72;4924438;28;97684;-73
2021/03/07 06:30:13;;;;;;;5.68;5.18;;;;;;;2.18;39.41;102060.31;4905238;28;99425;-73
2021/03/07 06:32:41;;;;;;;5.18;4.88;;;;;;;2.14;39.92;102057.34;4921189;28;96910;-73
2021/03/07 06:35:12;;;;;;;4.93;4.63;;;;;;;2.15;39.14;102059.16;4925580;28;96926;-72
2021/03/07 06:37:56;;;;;;;5.03;4.65;;;;;;;2.06;39.43;102054.13;4922518;28;99388;-73
2021/03/07 06:40:29;;;;;;;4.75;4.40;;;;;;;2.01;39.47;102055.47;4916517;28;98797;-72
2021/03/07 06:42:56;;;;;;;4.97;4.65;;;;;;;2.01;39.75;102054.56;4922220;28;96872;-73
2021/03/07 06:45:43;;;;;;;4.35;4.05;;;;;;;1.99;40.00;102051.81;4927793;28;97376;-73
2021/03/07 06:48:11;;;;;;;4.65;4.30;;;;;;;2.00;39.96;102050.09;4915697;28;98466;-73
2021/03/07 06:50:52;;;;;;;4.50;4.20;;;;;;;1.99;39.86;102049.19;4916051;28;99284;-73
2021/03/07 06:53:31;;;;;;;4.22;3.92;;;;;;;2.00;40.24;102052.72;4903733;28;96983;-73
2021/03/07 06:55:58;;;;;;;5.83;5.27;;;;;;;2.14;39.74;102050.38;4915032;28;97033;-73
2021/03/07 06:58:25;;;;;;;4.85;4.55;;;;;;;2.07;39.84;102055.91;4929738;28;98525;-73
2021/03/07 07:00:53;;;;;;;4.95;4.60;;;;;;;2.03;39.79;102048.63;4909622;28;100460;-73
2021/03/07 07:03:19;;;;;;;4.57;4.28;;;;;;;2.02;39.48;102057.28;4929812;28;98768;-73
2021/03/07 07:05:49;;;;;;;4.80;4.40;;;;;;;2.00;39.52;102061.50;4927305;28;96922;-73
2021/03/07 07:08:17;;;;;;;6.95;5.30;;;;;;;2.13;39.52;102056.44;4926710;28;96880;-73
2021/03/07 07:10:55;;;;;;;4.60;4.40;;;;;;;2.06;39.84;102056.75;4909445;28;100433;-73
2021/03/07 07:13:23;;;;;;;5.70;5.20;;;;;;;2.20;39.87;102053.47;4929562;28;97179;-73
2021/03/07 07:15:57;;;;;;;5.45;4.97;;;;;;;2.15;39.15;102051.28;4923733;28;97335;-73
2021/03/07 07:18:45;;;;;;;5.53;5.00;;;;;;;2.11;39.52;102051.84;4912004;28;99069;-73
2021/03/07 07:21:16;;;;;;;4.63;4.30;;;;;;;2.09;39.45;102054.38;4913019;28;99457;-73
2021/03/07 07:23:43;;;;;;;4.57;4.10;;;;;;;2.11;39.39;102047.53;4910815;28;97087;-73
2021/03/07 07:26:10;;;;;;;5.75;4.22;;;;;;;2.11;39.09;102052.78;4925638;28;97180;-73
2021/03/07 07:28:37;;;;;;;4.85;4.45;;;;;;;2.07;39.74;102053.28;4901773;28;100382;-73
2021/03/07 07:31:08;;;;;;;5.05;4.63;;;;;;;2.00;39.44;102053.63;4903520;28;99253;-73
2021/03/07 07:33:47;;;;;;;5.35;4.85;;;;;;;2.08;39.48;102048.97;4891636;28;97438;-73
2021/03/07 07:36:23;;;;;;;4.90;4.50;;;;;;;2.08;38.90;102046.34;4926288;28;97924;-72
2021/03/07 07:38:51;;;;;;;5.13;4.82;;;;;;;2.08;39.47;102044.63;4926091;28;98852;-73
2021/03/07 07:41:26;;;;;;;4.97;4.57;;;;;;;2.00;38.85;102043.13;4925531;28;100635;-73
2021/03/07 07:43:53;;;;;;;4.97;4.60;;;;;;;2.00;39.71;102040.50;4911735;28;97579;-73
2021/03/07 07:46:20;;;;;;;4.55;4.35;;;;;;;1.99;39.23;102036.06;4928354;28;96672;-73
2021/03/07 07:48:48;;;;;;;6.13;4.05;;;;;;;2.00;38.81;102036.97;4906470;28;98973;-73
2021/03/07 07:51:33;;;;;;;4.63;4.18;;;;;;;2.00;38.86;102037.88;4907738;28;99530;-73
2021/03/07 07:54:00;;;;;;;4.25;4.05;;;;;;;2.02;39.44;102036.28;4921080;28;96924;-73
2021/03/07 07:56:35;;;;;;;4.57;4.32;;;;;;;2.00;38.98;102040.50;4923787;28;97240;-73
2021/03/07 07:59:03;;;;;;;5.00;4.60;;;;;;;2.01;38.93;102036.19;4897189;28;98985;-73
2021/03/07 08:01:55;;;;;;;4.68;4.30;;;;;;;1.98;38.59;102044.72;4908124;28;99528;-73
2021/03/07 08:04:41;;;;;;;4.75;4.40;;;;;;;2.08;37.85;102046.34;4935921;28;97406;-75
2021/03/07 08:07:10;;;;;;;5.00;4.70;;;;;;;2.11;37.68;102038.72;4906607;28;96935;-74
2021/03/07 08:09:42;;;;;;;4.40;4.18;;;;;;;1.93;37.95;102032.97;4915775;28;97148;-74
2021/03/07 08:12:47;;;;;;;5.40;4.90;;;;;;;2.03;37.65;102037.22;4914571;28;98433;-74
2021/03/07 08:15:46;;;;;;;4.70;4.40;;;;;;;2.04;37.34;102039.94;4923092;28;97353;-73
2021/03/07 08:18:15;;;;;;;4.03;3.78;;;;;;;1.87;36.85;102053.50;4924222;28;96797;-72
2021/03/07 08:21:02;;;;;;;4.88;4.60;;;;;;;1.93;36.74;102043.47;4914054;28;99021;-72
2021/03/07 08:24:05;;;;;;;4.43;4.13;;;;;;;1.83;37.38;102037.41;4921194;28;98626;-73
2021/03/07 08:26:58;;;;;;;5.43;4.95;;;;;;;1.93;36.76;102035.59;4915352;28;97042;-72
2021/03/07 08:29:45;;;;;;;4.80;3.95;;;;;;;1.86;37.11;102038.56;4904341;28;97752;-73
2021/03/07 08:32:33;;;;;;;4.90;4.60;;;;;;;1.99;36.32;102029.91;4916967;28;97437;-74
2021/03/07 08:35:01;;;;;;;5.13;4.70;;;;;;;2.05;35.71;102030.38;4916323;28;98003;-78
2021/03/07 08:37:30;;;;;;;6.63;4.83;;;;;;;2.08;36.27;102033.22;4902409;28;97077;-74
2021/03/07 08:40:30;;;;;;;5.53;4.97;;;;;;;2.08;34.72;102030.59;4906195;28;98312;-73
2021/03/07 08:42:58;;;;;;;4.97;4.28;;;;;;;1.99;36.34;102030.81;4923849;28;98294;-74
2021/03/07 08:45:26;;;;;;;4.35;4.15;;;;;;;2.00;36.60;102026.47;4916727;28;99177;-73
2021/03/07 08:47:58;;;;;;;4.63;4.43;;;;;;;2.04;36.61;102024.19;4912457;28;97628;-73
2021/03/07 08:50:27;;;;;;;4.82;4.60;;;;;;;2.03;37.08;102017.13;4900095;28;98044;-73
2021/03/07 08:52:54;;;;;;;5.15;4.75;;;;;;;2.03;36.99;102022.38;4919227;28;100452;-74
2021/03/07 08:55:21;;;;;;;5.25;4.95;;;;;;;2.16;36.44;102017.25;4918102;28;99555;-76
2021/03/07 08:57:56;;;;;;;4.82;4.53;;;;;;;2.18;36.37;102020.03;4913937;28;97165;-76
2021/03/07 09:00:24;;;;;;;4.65;4.35;;;;;;;2.19;36.44;102009.63;4919875;28;96988;-76
2021/03/07 09:02:52;;;;;;;5.90;5.27;;;;;;;2.31;35.95;102012.22;4925510;28;99636;-76
2021/03/07 09:05:31;;;;;;;5.32;5.00;;;;;;;2.28;36.05;102016.34;4916762;28;97743;-76
2021/03/07 09:08:02;;;;;;;5.80;5.50;;;;;;;2.40;35.51;102006.75;4920487;28;97526;-77
2021/03/07 09:10:30;;;;;;;4.85;4.45;;;;;;;2.27;35.47;102004.94;4906942;28;96855;-76
2021/03/07 09:13:07;;;;;;;4.38;4.13;;;;;;;2.18;34.97;101992.03;4905139;28;98751;-76
2021/03/07 09:15:35;;;;;;;4.15;3.95;;;;;;;2.22;35.58;101993.16;4921135;28;97599;-76
2021/03/07 09:18:03;;;;;;;4.88;4.57;;;;;;;2.22;35.92;102000.16;4906803;28;97217;-76
2021/03/07 09:20:45;;;;;;;4.50;4.30;;;;;;;2.14;35.91;101992.59;4931254;28;96830;-77
2021/03/07 09:23:30;;;;;;;4.40;4.20;;;;;;;2.14;35.59;101979.47;4908925;28;99220;-76
2021/03/07 09:25:57;;;;;;;4.93;4.63;;;;;;;2.17;36.20;101974.47;4909425;28;99323;-75
2021/03/07 09:28:36;;;;;;;4.50;4.30;;;;;;;2.14;35.24;101976.84;4903827;28;96905;-75
2021/03/07 09:31:06;;;;;;;4.78;4.47;;;;;;;2.16;36.05;101977.00;4919423;28;97755;-76
2021/03/07 09:33:34;;;;;;;4.90;4.70;;;;;;;2.16;36.93;101984.88;4910167;28;99598;-76
2021/03/07 09:36:03;;;;;;;5.45;4.72;;;;;;;2.18;36.42;101980.63;4908007;28;96855;-76
2021/03/07 09:38:48;;;;;;;5.03;4.68;;;;;;;2.22;35.39;101973.91;4916223;28;97604;-76
2021/03/07 09:41:27;;;;;;;5.20;4.80;;;;;;;2.20;36.67;101974.69;4914196;28;96792;-75
2021/03/07 09:43:55;;;;;;;5.20;4.90;;;;;;;2.24;36.37;101974.94;4934627;28;98668;-76
2021/03/07 09:46:22;;;;;;;7.10;5.15;;;;;;;2.23;36.40;101967.84;4916657;28;100555;-76
2021/03/07 09:48:54;;;;;;;5.65;5.25;;;;;;;2.22;36.45;101974.78;4934677;28;96840;-75
2021/03/07 09:51:22;;;;;;;5.78;5.38;;;;;;;2.24;37.14;101967.94;4927105;28;96890;-76
2021/03/07 09:53:49;;;;;;;5.28;5.05;;;;;;;2.19;36.74;101966.69;4935029;28;98120;-76
2021/03/07 09:56:22;;;;;;;5.38;5.07;;;;;;;2.19;36.66;101966.69;4933102;28;99400;-76
2021/03/07 09:58:49;;;;;;;5.10;4.70;;;;;;;2.17;36.68;101958.72;4929625;28;96746;-75
2021/03/07 10:01:16;;;;;;;6.93;5.13;;;;;;;2.17;36.75;101966.59;4933222;28;97180;-75
2021/03/07 10:03:44;;;;;;;5.35;4.97;;;;;;;2.22;36.91;101961.66;4917391;28;99289;-76
2021/03/07 10:06:14;;;;;;;5.72;5.25;;;;;;;2.19;37.01;101972.88;4933630;28;97451;-76
2021/03/07 10:08:41;;;;;;;5.20;4.80;;;;;;;2.20;36.85;101958.94;4914129;28;96896;-75
2021/03/07 10:11:20;;;;;;;5.10;4.85;;;;;;;2.19;35.76;101965.00;4931459;28;98218;-77
2021/03/07 10:13:57;;;;;;;5.05;4.85;;;;;;;2.18;35.64;101964.88;4914672;28;99927;-76
2021/03/07 10:16:27;;;;;;;6.30;4.68;;;;;;;2.20;36.56;101960.63;4937366;28;97937;-76
2021/03/07 10:19:12;;;;;;;5.32;4.93;;;;;;;2.19;35.27;101957.13;4927578;28;96795;-75
2021/03/07 10:21:40;;;;;;;5.28;4.85;;;;;;;2.28;36.69;101955.94;4930141;28;97218;-76
2021/03/07 10:24:12;;;;;;;5.65;5.25;;;;;;;2.25;36.81;101955.72;4910945;28;98849;-76
2021/03/07 10:26:40;;;;;;;5.72;5.05;;;;;;;2.22;36.86;101943.28;4910044;28;98489;-76
2021/03/07 10:29:18;;;;;;;4.72;4.53;;;;;;;2.21;36.78;101949.34;4918402;28;96825;-76
2021/03/07 10:32:06;;;;;;;5.97;5.03;;;;;;;2.22;36.71;101945.91;4910359;28;97258;-76
2021/03/07 10:34:35;;;;;;;5.72;5.18;;;;;;;2.20;36.76;101944.88;4933152;28;99270;-75
2021/03/07 10:37:03;;;;;;;6.38;4.95;;;;;;;2.24;36.78;101946.94;4907234;28;96985;-75
2021/03/07 10:39:30;;;;;;;5.00;4.70;;;;;;;2.23;36.39;101953.00;4906547;28;97577;-76
2021/03/07 10:42:05;;;;;;;5.68;5.18;;;;;;;2.25;36.45;101954.03;4918974;28;97084;-76
2021/03/07 10:44:32;;;;;;;6.18;5.53;;;;;;;2.27;36.79;101949.81;4935623;28;99526;-76
2021/03/07 10:47:17;;;;;;;5.32;5.03;;;;;;;2.27;35.93;101946.25;4888881;28;99712;-76
2021/03/07 10:49:49;;;;;;;5.97;5.50;;;;;;;2.26;35.88;101942.69;4894318;28;96876;-76
2021/03/07 10:52:17;;;;;;;5.50;5.00;;;;;;;2.28;36.92;101933.22;4906427;28;97345;-78
2021/03/07 10:54:44;;;;;;;5.47;5.18;;;;;;;2.27;36.71;101946.25;4920419;28;98141;-76
2021/03/07 10:57:12;;;;;;;5.72;5.30;;;;;;;2.26;36.54;101934.81;4917571;28;99316;-77
2021/03/07 10:59:39;;;;;;;5.45;5.15;;;;;;;2.20;36.66;101937.91;4916732;28;99046;-77
2021/03/07 11:02:10;;;;;;;5.85;5.40;;;;;;;2.22;36.85;101934.50;4917074;28;98237;-76
2021/03/07 11:04:38;;;;;;;5.28;4.90;;;;;;;2.26;36.62;101928.66;4908172;28;99285;-76
2021/03/07 11:07:05;;;;;;;5.25;4.95;;;;;;;2.27;36.12;101936.66;4914342;28;99489;-77
2021/03/07 11:09:32;;;;;;;5.10;4.80;;;;;;;2.27;36.68;101922.63;4920330;28;96740;-74
2021/03/07 11:11:59;;;;;;;5.55;5.03;;;;;;;2.29;36.47;101921.03;4927249;28;96753;-77
2021/03/07 11:14:25;;;;;;;6.47;5.95;;;;;;;2.28;36.86;101924.44;4900965;28;100041;-77
2021/03/07 11:16:52;;;;;;;6.25;5.85;;;;;;;2.26;36.32;101920.78;4927118;28;97794;-76
2021/03/07 11:19:20;;;;;;;5.43;5.03;;;;;;;2.28;36.76;101924.44;4923323;28;97592;-78
2021/03/07 11:21:47;;;;;;;6.05;5.55;;;;;;;2.32;36.73;101923.84;4925634;28;96919;-75
2021/03/07 11:24:14;;;;;;;6.13;5.63;;;;;;;2.38;36.65;101911.19;4893540;28;101093;-77
2021/03/07 11:26:41;;;;;;;5.45;5.10;;;;;;;2.41;36.70;101906.13;4926351;28;97560;-76
2021/03/07 11:29:08;;;;;;;5.32;4.80;;;;;;;2.43;36.35;101913.31;4903687;28;96796;-77
2021/03/07 11:31:35;;;;;;;5.63;5.22;;;;;;;2.43;36.81;101899.28;4916311;28;99988;-76
2021/03/07 11:34:03;;;;;;;5.93;5.35;;;;;;;2.38;36.32;101909.47;4915276;28;98885;-77
2021/03/07 11:36:29;;;;;;;5.68;5.38;;;;;;;2.39;36.30;101906.03;4895356;28;100635;-76
2021/03/07 11:38:57;;;;;;;6.25;5.75;;;;;;;2.33;36.90;101895.06;4923092;28;97435;-76
2021/03/07 11:41:24;;;;;;;6.32;5.78;;;;;;;2.33;36.46;101894.19;4915891;28;97013;-76
2021/03/07 11:43:53;;;;;;;5.68;5.18;;;;;;;2.35;36.88;101880.34;4917858;28;100497;-75
2021/03/07 11:46:19;;;;;;;5.90;5.40;;;;;;;2.38;35.90;101890.16;4920498;28;97748;-76